sensor_id;sensor_type;location;lat;lon;timestamp;pressure;altitude;pressure_sealevel;temperature;humidity
48527;BME280;34317;51.660;5.824;2023-05-13T00:02:07;101953.56;;;18.35;50.69
48527;BME280;34317;51.660;5.824;2023-05-13T00:04:35;101950.13;;;18.33;50.42
48527;BME280;34317;51.660;5.824;2023-05-13T00:07:02;101947.44;;;18.33;50.56
48527;BME280;34317;51.660;5.824;2023-05-13T00:09:30;101944.75;;;18.33;50.55
48527;BME280;34317;51.660;5.824;2023-05-13T00:11:57;101948.38;;;18.32;50.43
48527;BME280;34317;51.660;5.824;2023-05-13T00:14:24;101943.03;;;18.32;50.53
48527;BME280;34317;51.660;5.824;2023-05-13T00:16:51;101948.38;;;18.32;50.48
48527;BME280;34317;51.660;5.824;2023-05-13T00:19:19;101944.94;;;18.30;50.17
48527;BME280;34317;51.660;5.824;2023-05-13T00:21:46;101941.50;;;18.28;50.33
48527;BME280;34317;51.660;5.824;2023-05-13T00:24:14;101940.72;;;18.26;50.17
48527;BME280;34317;51.660;5.824;2023-05-13T00:26:41;101947.03;;;18.25;50.09
48527;BME280;34317;51.660;5.824;2023-05-13T00:29:08;101936.50;;;18.22;50.07
48527;BME280;34317;51.660;5.824;2023-05-13T00:31:35;101943.78;;;18.20;50.25
48527;BME280;34317;51.660;5.824;2023-05-13T00:34:03;101940.31;;;18.18;49.91
48527;BME280;34317;51.660;5.824;2023-05-13T00:36:31;101949.31;;;18.17;50.00
48527;BME280;34317;51.660;5.824;2023-05-13T00:38:58;101942.22;;;18.16;49.72
48527;BME280;34317;51.660;5.824;2023-05-13T00:41:26;101942.41;;;18.13;49.69
48527;BME280;34317;51.660;5.824;2023-05-13T00:43:54;101946.03;;;18.12;49.63
48527;BME280;34317;51.660;5.824;2023-05-13T00:46:24;101943.44;;;18.10;49.31
48527;BME280;34317;51.660;5.824;2023-05-13T00:48:51;101951.59;;;18.08;49.44
48527;BME280;34317;51.660;5.824;2023-05-13T00:51:19;101953.50;;;18.06;49.44
48527;BME280;34317;51.660;5.824;2023-05-13T00:53:46;101953.50;;;18.06;49.44
48527;BME280;34317;51.660;5.824;2023-05-13T00:56:20;101951.75;;;18.05;49.36
48527;BME280;34317;51.660;5.824;2023-05-13T00:58:50;101956.25;;;18.05;49.35
48527;BME280;34317;51.660;5.824;2023-05-13T01:06:56;101954.03;;;17.97;49.16
48527;BME280;34317;51.660;5.824;2023-05-13T01:09:42;101947.09;;;17.93;49.19
48527;BME280;34317;51.660;5.824;2023-05-13T01:12:17;101943.66;;;17.91;49.19
48527;BME280;34317;51.660;5.824;2023-05-13T01:14:54;101947.47;;;17.87;48.90
48527;BME280;34317;51.660;5.824;2023-05-13T01:17:43;101943.22;;;17.83;49.20
48527;BME280;34317;51.660;5.824;2023-05-13T01:20:11;101945.19;;;17.79;49.06
48527;BME280;34317;51.660;5.824;2023-05-13T01:22:42;101942.81;;;17.75;49.12
48527;BME280;34317;51.660;5.824;2023-05-13T01:25:09;101938.47;;;17.72;49.08
48527;BME280;34317;51.660;5.824;2023-05-13T01:27:37;101948.50;;;17.68;49.17
48527;BME280;34317;51.660;5.824;2023-05-13T01:30:05;101939.88;;;17.63;49.00
48527;BME280;34317;51.660;5.824;2023-05-13T01:32:33;101947.31;;;17.58;49.00
48527;BME280;34317;51.660;5.824;2023-05-13T01:35:01;101940.41;;;17.54;49.10
48527;BME280;34317;51.660;5.824;2023-05-13T01:37:31;101941.69;;;17.47;49.17
48527;BME280;34317;51.660;5.824;2023-05-13T01:39:58;101951.78;;;17.42;49.27
48527;BME280;34317;51.660;5.824;2023-05-13T01:42:29;101951.22;;;17.37;49.44
48527;BME280;34317;51.660;5.824;2023-05-13T01:44:57;101945.25;;;17.31;49.40
48527;BME280;34317;51.660;5.824;2023-05-13T01:47:24;101954.47;;;17.26;49.48
48527;BME280;34317;51.660;5.824;2023-05-13T01:49:51;101948.50;;;17.21;49.36
48527;BME280;34317;51.660;5.824;2023-05-13T01:52:19;101951.44;;;17.16;49.58
48527;BME280;34317;51.660;5.824;2023-05-13T01:54:47;101949.97;;;17.10;49.78
48527;BME280;34317;51.660;5.824;2023-05-13T01:57:14;101955.56;;;17.06;49.77
48527;BME280;34317;51.660;5.824;2023-05-13T01:59:41;101947.81;;;17.01;49.64
48527;BME280;34317;51.660;5.824;2023-05-13T02:02:09;101954.34;;;16.96;49.70
48527;BME280;34317;51.660;5.824;2023-05-13T02:04:36;101954.59;;;16.91;49.85
48527;BME280;34317;51.660;5.824;2023-05-13T02:07:03;101951.19;;;16.87;49.73
48527;BME280;34317;51.660;5.824;2023-05-13T02:09:32;101947.94;;;16.82;49.91
48527;BME280;34317;51.660;5.824;2023-05-13T02:11:59;101948.06;;;16.79;49.93
48527;BME280;34317;51.660;5.824;2023-05-13T02:14:28;101944.75;;;16.74;49.97
48527;BME280;34317;51.660;5.824;2023-05-13T02:16:55;101944.16;;;16.69;49.99
48527;BME280;34317;51.660;5.824;2023-05-13T02:19:22;101940.16;;;16.60;50.15
48527;BME280;34317;51.660;5.824;2023-05-13T02:21:50;101947.47;;;16.57;50.38
48527;BME280;34317;51.660;5.824;2023-05-13T02:24:17;101945.19;;;16.49;50.34
48527;BME280;34317;51.660;5.824;2023-05-13T02:26:45;101946.38;;;16.43;50.44
48527;BME280;34317;51.660;5.824;2023-05-13T02:29:12;101952.06;;;16.37;50.55
48527;BME280;34317;51.660;5.824;2023-05-13T02:31:40;101954.09;;;16.32;50.65
48527;BME280;34317;51.660;5.824;2023-05-13T02:34:09;101956.13;;;16.27;50.75
48527;BME280;34317;51.660;5.824;2023-05-13T02:36:36;101950.97;;;16.24;50.78
48527;BME280;34317;51.660;5.824;2023-05-13T02:39:05;101956.59;;;16.18;50.88
48527;BME280;34317;51.660;5.824;2023-05-13T02:41:33;101955.03;;;16.13;50.97
48527;BME280;34317;51.660;5.824;2023-05-13T02:44:00;101949.81;;;16.10;50.96
48527;BME280;34317;51.660;5.824;2023-05-13T02:46:28;101950.00;;;16.07;51.04
48527;BME280;34317;51.660;5.824;2023-05-13T02:48:55;101950.31;;;16.01;51.35
48527;BME280;34317;51.660;5.824;2023-05-13T02:51:23;101941.66;;;15.96;51.19
48527;BME280;34317;51.660;5.824;2023-05-13T02:53:50;101940.09;;;15.92;51.22
48527;BME280;34317;51.660;5.824;2023-05-13T02:56:19;101943.81;;;15.88;51.36
48527;BME280;34317;51.660;5.824;2023-05-13T02:58:46;101943.28;;;15.81;51.49
48527;BME280;34317;51.660;5.824;2023-05-13T03:01:13;101944.44;;;15.75;51.43
48527;BME280;34317;51.660;5.824;2023-05-13T03:03:41;101944.72;;;15.69;51.59
48527;BME280;34317;51.660;5.824;2023-05-13T03:06:08;101939.66;;;15.63;51.78
48527;BME280;34317;51.660;5.824;2023-05-13T03:08:35;101942.56;;;15.58;51.79
48527;BME280;34317;51.660;5.824;2023-05-13T03:11:03;101940.13;;;15.54;51.75
48527;BME280;34317;51.660;5.824;2023-05-13T03:13:32;101941.13;;;15.51;51.88
48527;BME280;34317;51.660;5.824;2023-05-13T03:15:59;101935.84;;;15.50;51.94
48527;BME280;34317;51.660;5.824;2023-05-13T03:18:26;101932.34;;;15.49;52.00
48527;BME280;34317;51.660;5.824;2023-05-13T03:20:58;101936.03;;;15.47;52.02
48527;BME280;34317;51.660;5.824;2023-05-13T03:23:25;101942.28;;;15.46;52.21
48527;BME280;34317;51.660;5.824;2023-05-13T03:25:55;101945.13;;;15.43;52.50
48527;BME280;34317;51.660;5.824;2023-05-13T03:28:23;101946.06;;;15.42;52.33
48527;BME280;34317;51.660;5.824;2023-05-13T03:30:50;101946.19;;;15.38;52.21
48527;BME280;34317;51.660;5.824;2023-05-13T03:33:20;101949.81;;;15.37;52.33
48527;BME280;34317;51.660;5.824;2023-05-13T03:35:48;101948.06;;;15.36;52.48
48527;BME280;34317;51.660;5.824;2023-05-13T03:38:19;101948.22;;;15.33;52.28
48527;BME280;34317;51.660;5.824;2023-05-13T03:40:48;101946.56;;;15.31;52.53
48527;BME280;34317;51.660;5.824;2023-05-13T03:43:16;101950.25;;;15.28;52.35
48527;BME280;34317;51.660;5.824;2023-05-13T03:45:48;101945.94;;;15.26;52.36
48527;BME280;34317;51.660;5.824;2023-05-13T03:48:19;101949.66;;;15.22;52.49
48527;BME280;34317;51.660;5.824;2023-05-13T03:50:46;101944.47;;;15.18;52.69
48527;BME280;34317;51.660;5.824;2023-05-13T03:53:16;101953.47;;;15.16;52.58
48527;BME280;34317;51.660;5.824;2023-05-13T03:55:44;101956.31;;;15.13;52.73
48527;BME280;34317;51.660;5.824;2023-05-13T03:58:14;101950.25;;;15.09;52.77
48527;BME280;34317;51.660;5.824;2023-05-13T04:00:42;101950.38;;;15.06;52.78
48527;BME280;34317;51.660;5.824;2023-05-13T04:03:13;101954.97;;;15.03;52.90
48527;BME280;34317;51.660;5.824;2023-05-13T04:05:44;101957.00;;;14.97;52.99
48527;BME280;34317;51.660;5.824;2023-05-13T04:08:12;101949.94;;;14.96;53.15
48527;BME280;34317;51.660;5.824;2023-05-13T04:10:40;101958.84;;;14.95;53.30
48527;BME280;34317;51.660;5.824;2023-05-13T04:13:12;101960.72;;;14.93;53.38
48527;BME280;34317;51.660;5.824;2023-05-13T04:15:39;101959.00;;;14.92;53.36
48527;BME280;34317;51.660;5.824;2023-05-13T04:18:06;101960.72;;;14.93;53.18
48527;BME280;34317;51.660;5.824;2023-05-13T04:20:37;101964.34;;;14.92;53.38
48527;BME280;34317;51.660;5.824;2023-05-13T04:23:05;101959.00;;;14.92;53.59
48527;BME280;34317;51.660;5.824;2023-05-13T04:25:34;101957.25;;;14.91;53.59
48527;BME280;34317;51.660;5.824;2023-05-13T04:28:04;101960.88;;;14.90;53.76
48527;BME280;34317;51.660;5.824;2023-05-13T04:30:35;101967.94;;;14.91;53.77
48527;BME280;34317;51.660;5.824;2023-05-13T04:33:02;101968.94;;;14.89;53.84
48527;BME280;34317;51.660;5.824;2023-05-13T04:35:31;101962.75;;;14.88;53.93
48527;BME280;34317;51.660;5.824;2023-05-13T04:38:01;101962.75;;;14.88;53.96
48527;BME280;34317;51.660;5.824;2023-05-13T04:40:28;101967.16;;;14.89;54.13
48527;BME280;34317;51.660;5.824;2023-05-13T04:43:00;101961.81;;;14.89;54.03
48527;BME280;34317;51.660;5.824;2023-05-13T04:45:31;101964.47;;;14.89;54.18
48527;BME280;34317;51.660;5.824;2023-05-13T04:48:00;101973.44;;;14.88;54.14
48527;BME280;34317;51.660;5.824;2023-05-13T04:50:27;101962.88;;;14.85;54.35
48527;BME280;34317;51.660;5.824;2023-05-13T04:52:55;101971.81;;;14.84;54.42
48527;BME280;34317;51.660;5.824;2023-05-13T04:55:23;101970.09;;;14.83;54.44
48527;BME280;34317;51.660;5.824;2023-05-13T04:57:53;101977.16;;;14.84;54.54
48527;BME280;34317;51.660;5.824;2023-05-13T05:00:20;101985.97;;;14.86;54.61
48527;BME280;34317;51.660;5.824;2023-05-13T05:02:50;101977.03;;;14.87;54.64
48527;BME280;34317;51.660;5.824;2023-05-13T05:05:17;101985.81;;;14.89;54.69
48527;BME280;34317;51.660;5.824;2023-05-13T05:07:45;101981.34;;;14.90;54.93
48527;BME280;34317;51.660;5.824;2023-05-13T05:10:15;101985.69;;;14.92;54.80
48527;BME280;34317;51.660;5.824;2023-05-13T05:12:48;101985.53;;;14.95;54.78
48527;BME280;34317;51.660;5.824;2023-05-13T05:15:15;101989.03;;;14.97;54.97
48527;BME280;34317;51.660;5.824;2023-05-13T05:17:45;101988.88;;;15.01;55.12
48527;BME280;34317;51.660;5.824;2023-05-13T05:20:13;101990.44;;;15.05;55.04
48527;BME280;34317;51.660;5.824;2023-05-13T05:22:40;101997.41;;;15.09;55.10
48527;BME280;34317;51.660;5.824;2023-05-13T05:25:10;101999.00;;;15.13;55.27
48527;BME280;34317;51.660;5.824;2023-05-13T05:27:37;102007.63;;;15.18;55.22
48527;BME280;34317;51.660;5.824;2023-05-13T05:30:07;101999.44;;;15.23;55.15
48527;BME280;34317;51.660;5.824;2023-05-13T05:32:35;102001.88;;;15.27;55.17
48527;BME280;34317;51.660;5.824;2023-05-13T05:35:04;102003.50;;;15.31;55.19
48527;BME280;34317;51.660;5.824;2023-05-13T05:37:32;101997.06;;;15.35;55.31
48527;BME280;34317;51.660;5.824;2023-05-13T05:39:59;102014.72;;;15.38;55.41
48527;BME280;34317;51.660;5.824;2023-05-13T05:42:28;102006.66;;;15.40;55.25
48527;BME280;34317;51.660;5.824;2023-05-13T05:44:55;102000.38;;;15.41;55.47
48527;BME280;34317;51.660;5.824;2023-05-13T05:47:22;102002.91;;;15.44;55.36
48527;BME280;34317;51.660;5.824;2023-05-13T05:49:50;102008.13;;;15.47;55.57
48527;BME280;34317;51.660;5.824;2023-05-13T05:52:18;102009.69;;;15.51;55.60
48527;BME280;34317;51.660;5.824;2023-05-13T05:54:45;102009.41;;;15.57;55.62
48527;BME280;34317;51.660;5.824;2023-05-13T05:57:14;102002.03;;;15.62;55.68
48527;BME280;34317;51.660;5.824;2023-05-13T05:59:41;102008.81;;;15.69;55.82
48527;BME280;34317;51.660;5.824;2023-05-13T06:02:08;102005.03;;;15.75;55.70
48527;BME280;34317;51.660;5.824;2023-05-13T06:04:36;102007.31;;;15.83;55.94
48527;BME280;34317;51.660;5.824;2023-05-13T06:07:03;102018.50;;;15.91;55.77
48527;BME280;34317;51.660;5.824;2023-05-13T06:09:32;102009.09;;;16.01;55.85
48527;BME280;34317;51.660;5.824;2023-05-13T06:12:00;102010.38;;;16.11;55.73
48527;BME280;34317;51.660;5.824;2023-05-13T06:14:29;102020.59;;;16.21;55.78
48527;BME280;34317;51.660;5.824;2023-05-13T06:16:57;102021.84;;;16.31;55.40
48527;BME280;34317;51.660;5.824;2023-05-13T06:19:24;102011.66;;;16.39;55.45
48527;BME280;34317;51.660;5.824;2023-05-13T06:21:51;102024.72;;;16.45;55.25
48527;BME280;34317;51.660;5.824;2023-05-13T06:24:18;102017.00;;;16.57;55.36
48527;BME280;34317;51.660;5.824;2023-05-13T06:26:46;102019.13;;;16.67;55.48
48527;BME280;34317;51.660;5.824;2023-05-13T06:29:13;102029.25;;;16.78;55.20
48527;BME280;34317;51.660;5.824;2023-05-13T06:31:41;102023.22;;;16.92;55.25
48527;BME280;34317;51.660;5.824;2023-05-13T06:34:08;102018.09;;;17.05;55.16
48527;BME280;34317;51.660;5.824;2023-05-13T06:36:42;102021.06;;;17.16;54.91
48527;BME280;34317;51.660;5.824;2023-05-13T06:39:11;102020.38;;;17.28;54.85
48527;BME280;34317;51.660;5.824;2023-05-13T06:41:39;102017.81;;;17.43;54.74
48527;BME280;34317;51.660;5.824;2023-05-13T06:44:12;102025.84;;;17.59;54.83
48527;BME280;34317;51.660;5.824;2023-05-13T06:46:43;102030.25;;;17.76;54.69
48527;BME280;34317;51.660;5.824;2023-05-13T06:49:10;102031.16;;;17.92;54.75
48527;BME280;34317;51.660;5.824;2023-05-13T06:51:38;102028.38;;;18.09;54.40
48527;BME280;34317;51.660;5.824;2023-05-13T06:54:05;102028.38;;;18.25;53.91
48527;BME280;34317;51.660;5.824;2023-05-13T06:56:32;102030.06;;;18.42;53.88
48527;BME280;34317;51.660;5.824;2023-05-13T06:59:00;102035.19;;;18.61;53.96
48527;BME280;34317;51.660;5.824;2023-05-13T07:01:28;102028.03;;;18.76;53.93
48527;BME280;34317;51.660;5.824;2023-05-13T07:03:55;102033.44;;;18.91;53.78
48527;BME280;34317;51.660;5.824;2023-05-13T07:06:22;102028.09;;;19.05;53.21
48527;BME280;34317;51.660;5.824;2023-05-13T07:08:49;102037.19;;;19.17;53.04
48527;BME280;34317;51.660;5.824;2023-05-13T07:11:17;102036.44;;;19.29;52.89
48527;BME280;34317;51.660;5.824;2023-05-13T07:13:44;102039.97;;;19.44;52.51
48527;BME280;34317;51.660;5.824;2023-05-13T07:16:13;102041.78;;;19.58;52.42
48527;BME280;34317;51.660;5.824;2023-05-13T07:18:40;102042.66;;;19.73;52.33
48527;BME280;34317;51.660;5.824;2023-05-13T07:21:08;102033.59;;;19.88;52.19
48527;BME280;34317;51.660;5.824;2023-05-13T07:23:35;102034.31;;;20.05;52.26
48527;BME280;34317;51.660;5.824;2023-05-13T07:26:02;102036.94;;;20.19;52.11
48527;BME280;34317;51.660;5.824;2023-05-13T07:28:29;102027.06;;;20.32;51.93
48527;BME280;34317;51.660;5.824;2023-05-13T07:30:57;102028.94;;;20.45;51.10
48527;BME280;34317;51.660;5.824;2023-05-13T07:33:24;102026.47;;;20.54;51.13
48527;BME280;34317;51.660;5.824;2023-05-13T07:35:52;102032.13;;;20.64;51.20
48527;BME280;34317;51.660;5.824;2023-05-13T07:38:19;102029.78;;;20.72;50.78
48527;BME280;34317;51.660;5.824;2023-05-13T07:40:47;102025.47;;;20.83;50.59
48527;BME280;34317;51.660;5.824;2023-05-13T07:43:15;102030.22;;;20.92;50.36
48527;BME280;34317;51.660;5.824;2023-05-13T07:45:49;102034.97;;;21.01;51.02
48527;BME280;34317;51.660;5.824;2023-05-13T07:48:18;102027.84;;;21.13;50.68
48527;BME280;34317;51.660;5.824;2023-05-13T07:50:45;102031.72;;;21.22;50.70
48527;BME280;34317;51.660;5.824;2023-05-13T07:53:12;102030.06;;;21.32;50.30
48527;BME280;34317;51.660;5.824;2023-05-13T07:55:42;102033.84;;;21.42;49.79
48527;BME280;34317;51.660;5.824;2023-05-13T07:58:09;102033.22;;;21.51;49.55
48527;BME280;34317;51.660;5.824;2023-05-13T08:00:36;102034.47;;;21.58;49.68
48527;BME280;34317;51.660;5.824;2023-05-13T08:03:04;102035.75;;;21.66;49.40
48527;BME280;34317;51.660;5.824;2023-05-13T08:05:31;102032.50;;;21.73;49.37
48527;BME280;34317;51.660;5.824;2023-05-13T08:07:58;102032.69;;;21.83;49.35
48527;BME280;34317;51.660;5.824;2023-05-13T08:10:25;102040.06;;;21.92;49.42
48527;BME280;34317;51.660;5.824;2023-05-13T08:12:53;102037.69;;;22.01;49.34
48527;BME280;34317;51.660;5.824;2023-05-13T08:15:24;102046.81;;;22.11;48.93
48527;BME280;34317;51.660;5.824;2023-05-13T08:17:52;102044.41;;;22.19;48.57
48527;BME280;34317;51.660;5.824;2023-05-13T08:20:20;102035.00;;;22.25;48.39
48527;BME280;34317;51.660;5.824;2023-05-13T08:22:50;102038.09;;;22.31;48.65
48527;BME280;34317;51.660;5.824;2023-05-13T08:25:17;102044.75;;;22.39;48.20
48527;BME280;34317;51.660;5.824;2023-05-13T08:27:45;102043.22;;;22.47;48.03
48527;BME280;34317;51.660;5.824;2023-05-13T08:30:13;102040.78;;;22.55;47.75
48527;BME280;34317;51.660;5.824;2023-05-13T08:32:41;102037.47;;;22.63;47.70
48527;BME280;34317;51.660;5.824;2023-05-13T08:35:08;102035.03;;;22.71;47.68
48527;BME280;34317;51.660;5.824;2023-05-13T08:37:36;102029.19;;;22.78;47.91
48527;BME280;34317;51.660;5.824;2023-05-13T08:40:03;102027.69;;;22.85;47.81
48527;BME280;34317;51.660;5.824;2023-05-13T08:42:32;102033.38;;;22.93;47.72
48527;BME280;34317;51.660;5.824;2023-05-13T08:45:03;102030.19;;;22.99;46.77
48527;BME280;34317;51.660;5.824;2023-05-13T08:48:00;102027.75;;;23.07;46.50
48527;BME280;34317;51.660;5.824;2023-05-13T08:50:29;102029.72;;;23.17;46.75
48527;BME280;34317;51.660;5.824;2023-05-13T08:52:57;102030.97;;;23.24;45.57
48527;BME280;34317;51.660;5.824;2023-05-13T08:55:25;102030.72;;;23.27;45.32
48527;BME280;34317;51.660;5.824;2023-05-13T08:57:53;102036.63;;;23.32;45.42
48527;BME280;34317;51.660;5.824;2023-05-13T09:00:20;102028.03;;;23.38;45.63
48527;BME280;34317;51.660;5.824;2023-05-13T09:02:51;102029.25;;;23.45;45.30
48527;BME280;34317;51.660;5.824;2023-05-13T09:05:19;102029.59;;;23.52;46.06
48527;BME280;34317;51.660;5.824;2023-05-13T09:07:47;102020.59;;;23.63;45.49
48527;BME280;34317;51.660;5.824;2023-05-13T09:10:16;102030.69;;;23.72;45.90
48527;BME280;34317;51.660;5.824;2023-05-13T09:12:54;102024.53;;;23.81;45.79
48527;BME280;34317;51.660;5.824;2023-05-13T09:15:23;102023.78;;;23.90;44.93
48527;BME280;34317;51.660;5.824;2023-05-13T09:17:57;102023.25;;;23.97;44.78
48527;BME280;34317;51.660;5.824;2023-05-13T09:20:25;102030.88;;;24.03;45.41
48527;BME280;34317;51.660;5.824;2023-05-13T09:22:56;102025.41;;;24.14;45.55
48527;BME280;34317;51.660;5.824;2023-05-13T09:25:24;102015.53;;;24.24;44.74
48527;BME280;34317;51.660;5.824;2023-05-13T09:27:56;102013.75;;;24.35;44.47
48527;BME280;34317;51.660;5.824;2023-05-13T09:30:43;102022.84;;;24.45;44.42
48527;BME280;34317;51.660;5.824;2023-05-13T09:33:17;102022.03;;;24.54;44.33
48527;BME280;34317;51.660;5.824;2023-05-13T09:35:49;102021.53;;;24.60;43.98
48527;BME280;34317;51.660;5.824;2023-05-13T09:38:26;102010.16;;;24.66;43.64
48527;BME280;34317;51.660;5.824;2023-05-13T09:43:22;102012.25;;;24.84;42.78
48527;BME280;34317;51.660;5.824;2023-05-13T09:45:54;102011.72;;;24.90;42.81
48527;BME280;34317;51.660;5.824;2023-05-13T09:48:24;102010.31;;;24.96;41.29
48527;BME280;34317;51.660;5.824;2023-05-13T09:50:52;102002.06;;;24.97;40.95
48527;BME280;34317;51.660;5.824;2023-05-13T09:53:19;102010.31;;;24.96;40.91
48527;BME280;34317;51.660;5.824;2023-05-13T09:55:48;102014.63;;;24.98;40.74
48527;BME280;34317;51.660;5.824;2023-05-13T09:58:15;102008.91;;;25.01;41.12
48527;BME280;34317;51.660;5.824;2023-05-13T10:00:43;102004.09;;;25.05;41.14
48527;BME280;34317;51.660;5.824;2023-05-13T10:03:11;101997.25;;;25.11;40.97
48527;BME280;34317;51.660;5.824;2023-05-13T10:05:38;102002.16;;;25.17;40.96
48527;BME280;34317;51.660;5.824;2023-05-13T10:08:09;102008.75;;;25.24;40.71
48527;BME280;34317;51.660;5.824;2023-05-13T10:10:37;101996.50;;;25.30;40.64
48527;BME280;34317;51.660;5.824;2023-05-13T10:13:08;101993.41;;;25.34;40.57
48527;BME280;34317;51.660;5.824;2023-05-13T10:15:54;101995.09;;;25.35;40.39
48527;BME280;34317;51.660;5.824;2023-05-13T10:18:22;101989.41;;;25.38;40.41
48527;BME280;34317;51.660;5.824;2023-05-13T10:20:50;101980.88;;;25.43;40.46
48527;BME280;34317;51.660;5.824;2023-05-13T10:23:21;101981.16;;;25.50;40.37
48527;BME280;34317;51.660;5.824;2023-05-13T10:25:50;101986.03;;;25.56;40.25
48527;BME280;34317;51.660;5.824;2023-05-13T10:28:18;101976.63;;;25.60;39.85
48527;BME280;34317;51.660;5.824;2023-05-13T10:30:48;101982.47;;;25.65;39.96
48527;BME280;34317;51.660;5.824;2023-05-13T10:33:15;101980.91;;;25.72;40.06
48527;BME280;34317;51.660;5.824;2023-05-13T10:35:55;101985.78;;;25.78;39.28
48527;BME280;34317;51.660;5.824;2023-05-13T10:43:57;101985.78;;;25.78;38.25
48527;BME280;34317;51.660;5.824;2023-05-13T10:46:25;101982.06;;;25.79;39.09
48527;BME280;34317;51.660;5.824;2023-05-13T10:48:58;101976.38;;;25.82;38.72
48527;BME280;34317;51.660;5.824;2023-05-13T10:51:26;101979.50;;;25.88;38.32
48527;BME280;34317;51.660;5.824;2023-05-13T10:53:55;101979.22;;;25.91;38.40
48527;BME280;34317;51.660;5.824;2023-05-13T10:56:27;101976.09;;;25.95;38.33
48527;BME280;34317;51.660;5.824;2023-05-13T10:59:02;101974.97;;;25.98;37.33
48527;BME280;34317;51.660;5.824;2023-05-13T11:01:37;101988.69;;;25.96;37.72
48527;BME280;34317;51.660;5.824;2023-05-13T11:04:17;101979.69;;;25.96;37.88
48527;BME280;34317;51.660;5.824;2023-05-13T11:06:47;101966.84;;;25.98;38.11
48527;BME280;34317;51.660;5.824;2023-05-13T11:09:29;101974.41;;;26.04;37.68
48527;BME280;34317;51.660;5.824;2023-05-13T11:11:58;101967.28;;;26.13;38.15
48527;BME280;34317;51.660;5.824;2023-05-13T11:14:26;101970.97;;;26.21;37.77
48527;BME280;34317;51.660;5.824;2023-05-13T11:17:07;101972.25;;;26.27;38.17
48527;BME280;34317;51.660;5.824;2023-05-13T11:19:36;101965.38;;;26.33;36.77
48527;BME280;34317;51.660;5.824;2023-05-13T11:22:04;101961.53;;;26.35;35.94
48527;BME280;34317;51.660;5.824;2023-05-13T11:24:34;101967.81;;;26.36;36.41
48527;BME280;34317;51.660;5.824;2023-05-13T11:27:16;101963.09;;;26.38;36.56
48527;BME280;34317;51.660;5.824;2023-05-13T11:29:48;101956.34;;;26.42;35.53
48527;BME280;34317;51.660;5.824;2023-05-13T11:32:50;101950.63;;;26.45;35.65
48527;BME280;34317;51.660;5.824;2023-05-13T11:35:28;101952.06;;;26.49;35.79
48527;BME280;34317;51.660;5.824;2023-05-13T11:37:58;101956.88;;;26.55;35.78
48527;BME280;34317;51.660;5.824;2023-05-13T11:40:28;101952.75;;;26.61;35.55
48527;BME280;34317;51.660;5.824;2023-05-13T11:42:56;101948.91;;;26.64;34.91
48527;BME280;34317;51.660;5.824;2023-05-13T11:45:25;101948.19;;;26.61;33.94
48527;BME280;34317;51.660;5.824;2023-05-13T11:47:53;101959.22;;;26.60;34.21
48527;BME280;34317;51.660;5.824;2023-05-13T11:50:21;101937.31;;;26.61;34.39
48527;BME280;34317;51.660;5.824;2023-05-13T11:52:53;101944.88;;;26.68;34.13
48527;BME280;34317;51.660;5.824;2023-05-13T11:55:29;101947.00;;;26.74;34.37
48527;BME280;34317;51.660;5.824;2023-05-13T11:57:58;101937.97;;;26.83;33.97
48527;BME280;34317;51.660;5.824;2023-05-13T12:00:30;101941.09;;;26.88;33.08
48527;BME280;34317;51.660;5.824;2023-05-13T12:02:59;101933.66;;;26.90;33.22
48527;BME280;34317;51.660;5.824;2023-05-13T12:05:27;101934.22;;;26.94;32.80
48527;BME280;34317;51.660;5.824;2023-05-13T12:07:57;101932.75;;;26.99;32.37
48527;BME280;34317;51.660;5.824;2023-05-13T12:10:25;101934.16;;;27.04;32.66
48527;BME280;34317;51.660;5.824;2023-05-13T12:12:52;101931.28;;;27.05;32.96
48527;BME280;34317;51.660;5.824;2023-05-13T12:15:21;101930.81;;;27.10;33.21
48527;BME280;34317;51.660;5.824;2023-05-13T12:17:49;101922.03;;;27.16;33.08
48527;BME280;34317;51.660;5.824;2023-05-13T12:20:21;101923.88;;;27.25;33.25
48527;BME280;34317;51.660;5.824;2023-05-13T12:28:21;101915.13;;;27.31;31.78
48527;BME280;34317;51.660;5.824;2023-05-13T12:30:52;101919.72;;;27.31;31.38
48527;BME280;34317;51.660;5.824;2023-05-13T12:33:24;101924.00;;;27.33;31.56
48527;BME280;34317;51.660;5.824;2023-05-13T12:35:54;101925.06;;;27.41;31.47
48527;BME280;34317;51.660;5.824;2023-05-13T12:38:55;101918.63;;;27.42;31.17
48527;BME280;34317;51.660;5.824;2023-05-13T12:41:31;101923.09;;;27.43;31.43
48527;BME280;34317;51.660;5.824;2023-05-13T12:44:09;101920.75;;;27.48;30.95
48527;BME280;34317;51.660;5.824;2023-05-13T12:46:37;101920.66;;;27.57;31.08
48527;BME280;34317;51.660;5.824;2023-05-13T12:49:07;101916.78;;;27.60;30.36
48527;BME280;34317;51.660;5.824;2023-05-13T12:51:35;101921.22;;;27.61;30.35
48527;BME280;34317;51.660;5.824;2023-05-13T12:54:02;101913.22;;;27.60;29.83
48527;BME280;34317;51.660;5.824;2023-05-13T12:56:29;101908.09;;;27.56;30.89
48527;BME280;34317;51.660;5.824;2023-05-13T12:58:56;101914.06;;;27.60;30.61
48527;BME280;34317;51.660;5.824;2023-05-13T13:01:23;101912.13;;;27.70;30.57
48527;BME280;34317;51.660;5.824;2023-05-13T13:03:51;101916.22;;;27.74;30.14
48527;BME280;34317;51.660;5.824;2023-05-13T13:06:18;101909.25;;;27.72;29.57
48527;BME280;34317;51.660;5.824;2023-05-13T13:08:45;101903.25;;;27.68;29.40
48527;BME280;34317;51.660;5.824;2023-05-13T13:11:13;101916.16;;;27.66;29.17
48527;BME280;34317;51.660;5.824;2023-05-13T13:13:45;101913.59;;;27.65;29.00
48527;BME280;34317;51.660;5.824;2023-05-13T13:16:13;101914.28;;;27.67;29.45
48527;BME280;34317;51.660;5.824;2023-05-13T13:18:40;101901.91;;;27.72;28.81
48527;BME280;34317;51.660;5.824;2023-05-13T13:21:08;101908.78;;;27.76;29.23